Time;durP1;ratioP1;P1;durP2;ratioP2;P2;SDS_P1;SDS_P2;PMS_P1;PMS_P2;Temp;Humidity;BMP_temperature;BMP_pressure;BME280_temperature;BME280_humidity;BME280_pressure;Samples;Min_cycle;Max_cycle;Signal;HPM_P1;HPM_P2
2022/09/13 00:00:56;;;;;;;17.15;14.00;;;19.20;99.90;;;;;;5098475;27;20050;-91
2022/09/13 00:03:22;;;;;;;16.95;14.02;;;19.20;99.90;;;;;;5115619;27;20031;-91
2022/09/13 00:05:47;;;;;;;15.70;13.00;;;19.20;99.90;;;;;;5115842;27;20050;-91
2022/09/13 00:08:13;;;;;;;15.40;13.70;;;19.20;99.90;;;;;;5116154;27;20188;-91
2022/09/13 00:10:41;;;;;;;17.70;12.93;;;19.10;99.90;;;;;;5134123;27;20515;-91
2022/09/13 00:13:08;;;;;;;15.63;14.02;;;19.10;99.90;;;;;;5115531;27;20047;-91
2022/09/13 00:15:34;;;;;;;16.25;13.90;;;19.00;99.90;;;;;;5098669;27;20039;-91
2022/09/13 00:18:00;;;;;;;17.55;14.63;;;19.00;99.90;;;;;;5115177;27;20039;-91
2022/09/13 00:20:26;;;;;;;17.42;14.38;;;19.00;99.90;;;;;;5115529;27;20043;-91
2022/09/13 00:22:52;;;;;;;16.88;15.18;;;19.00;99.90;;;;;;5115325;27;20043;-91
2022/09/13 00:25:18;;;;;;;15.75;14.00;;;19.00;99.90;;;;;;5115200;27;20035;-91
2022/09/13 00:27:43;;;;;;;15.45;13.77;;;19.00;99.90;;;;;;5098407;27;20062;-91
2022/09/13 00:30:10;;;;;;;15.98;14.10;;;18.90;99.90;;;;;;5115345;27;20039;-91
2022/09/13 00:32:36;;;;;;;16.63;14.25;;;18.90;99.90;;;;;;5097864;27;20043;-91
2022/09/13 00:35:04;;;;;;;14.60;13.10;;;18.90;99.90;;;;;;5115258;27;20051;-91
2022/09/13 00:37:32;;;;;;;14.82;13.23;;;18.80;99.90;;;;;;5098248;27;20122;-91
2022/09/13 00:39:57;;;;;;;16.67;14.20;;;18.80;99.90;;;;;;5114740;27;20053;-91
2022/09/13 00:42:31;;;;;;;17.08;14.57;;;18.80;99.90;;;;;;5097863;27;20039;-91
2022/09/13 00:45:07;;;;;;;15.63;13.63;;;18.70;99.90;;;;;;5115088;27;20523;-91
2022/09/13 00:47:36;;;;;;;13.48;11.65;;;18.70;99.90;;;;;;5114996;27;20513;-91
2022/09/13 00:50:17;;;;;;;14.68;13.07;;;18.60;99.90;;;;;;5115113;27;20117;-91
2022/09/13 00:52:46;;;;;;;13.55;12.00;;;18.60;99.90;;;;;;5097595;27;20039;-91
2022/09/13 00:55:19;;;;;;;13.32;11.60;;;18.60;99.90;;;;;;5114494;27;20043;-91
2022/09/13 00:57:45;;;;;;;15.48;12.20;;;18.60;99.90;;;;;;5114733;27;20072;-91
2022/09/13 01:00:17;;;;;;;15.57;11.95;;;18.60;99.90;;;;;;5097876;27;20121;-91
2022/09/13 01:03:05;;;;;;;14.52;11.13;;;18.60;99.90;;;;;;5114238;27;20035;-91
2022/09/13 01:05:35;;;;;;;14.20;12.70;;;18.60;99.90;;;;;;5114761;27;20665;-91
2022/09/13 01:08:02;;;;;;;13.98;12.25;;;18.50;99.90;;;;;;5097847;27;20031;-92
2022/09/13 01:10:30;;;;;;;14.25;10.90;;;18.50;99.90;;;;;;5114124;27;20118;-91
2022/09/13 01:13:00;;;;;;;13.60;12.07;;;18.50;99.90;;;;;;5097768;27;20051;-91
2022/09/13 01:15:26;;;;;;;15.15;12.45;;;18.50;99.90;;;;;;5114387;27;20514;-91
2022/09/13 01:17:53;;;;;;;13.90;11.70;;;18.60;99.90;;;;;;5114291;27;20122;-91
2022/09/13 01:20:24;;;;;;;13.52;11.60;;;18.60;99.90;;;;;;5097408;27;20031;-91
2022/09/13 01:23:08;;;;;;;12.60;11.02;;;18.50;99.90;;;;;;5114287;28;20027;-91
2022/09/13 01:25:53;;;;;;;15.40;13.00;;;18.50;99.90;;;;;;5113836;27;20544;-92
2022/09/13 01:28:50;;;;;;;14.13;12.20;;;18.50;99.90;;;;;;5113876;27;20043;-91
2022/09/13 01:31:22;;;;;;;14.77;12.13;;;18.50;99.90;;;;;;5114276;28;20082;-91
2022/09/13 01:34:12;;;;;;;15.25;12.50;;;18.50;99.90;;;;;;5097563;28;20043;-92
2022/09/13 01:36:54;;;;;;;14.85;13.25;;;18.50;99.90;;;;;;5114526;28;20400;-91
2022/09/13 01:39:32;;;;;;;14.52;12.15;;;18.50;99.90;;;;;;5113955;27;20090;-90
2022/09/13 01:42:21;;;;;;;13.93;12.32;;;18.50;99.90;;;;;;5132443;27;20070;-91
2022/09/13 01:45:03;;;;;;;14.23;12.73;;;18.40;99.90;;;;;;5065267;28;20075;-91
2022/09/13 01:47:36;;;;;;;16.05;13.15;;;18.40;99.90;;;;;;5113814;28;20035;-91
2022/09/13 01:50:12;;;;;;;15.52;13.80;;;18.40;99.90;;;;;;5114219;28;20131;-91
2022/09/13 01:52:37;;;;;;;14.07;12.60;;;18.40;99.90;;;;;;5113844;28;20575;-91
2022/09/13 01:55:27;;;;;;;14.52;13.02;;;18.30;99.90;;;;;;5096790;28;20138;-91
2022/09/13 01:58:11;;;;;;;14.77;13.15;;;18.40;99.90;;;;;;5114114;28;20039;-92
2022/09/13 02:01:02;;;;;;;16.02;14.00;;;18.30;99.90;;;;;;5114115;28;20061;-92
2022/09/13 02:03:39;;;;;;;15.15;13.55;;;18.30;99.90;;;;;;5097285;28;20031;-91
2022/09/13 02:06:12;;;;;;;15.98;13.93;;;18.30;99.90;;;;;;5114274;28;20399;-91
2022/09/13 02:08:53;;;;;;;16.23;14.52;;;18.30;99.90;;;;;;5097218;28;20061;-91
2022/09/13 02:11:21;;;;;;;16.92;14.60;;;18.30;99.90;;;;;;5096712;28;20070;-91
2022/09/13 02:14:06;;;;;;;16.70;15.00;;;18.30;99.90;;;;;;5097006;28;20080;-91
2022/09/13 02:16:49;;;;;;;15.93;14.23;;;18.30;99.90;;;;;;5113563;28;20047;-92
2022/09/13 02:19:20;;;;;;;17.83;15.93;;;18.30;99.90;;;;;;5114048;28;20035;-91
2022/09/13 02:21:51;;;;;;;16.13;14.43;;;18.30;99.90;;;;;;5113619;28;20575;-92
2022/09/13 02:24:23;;;;;;;17.83;15.98;;;18.30;99.90;;;;;;5100532;27;20038;-91
2022/09/13 02:26:53;;;;;;;17.60;15.57;;;18.30;99.90;;;;;;5100705;27;20043;-92
2022/09/13 02:29:22;;;;;;;17.77;15.98;;;18.20;99.90;;;;;;5136155;27;20107;-91
2022/09/13 02:31:57;;;;;;;18.55;16.65;;;18.20;99.90;;;;;;5117216;27;20054;-91
2022/09/13 02:34:51;;;;;;;17.67;15.75;;;18.20;99.90;;;;;;5117801;27;20039;-92
2022/09/13 02:37:18;;;;;;;18.88;16.98;;;18.20;99.90;;;;;;5117694;27;20046;-92
2022/09/13 02:39:49;;;;;;;19.20;17.00;;;18.20;99.90;;;;;;5116908;27;20035;-92
2022/09/13 02:42:35;;;;;;;18.60;16.53;;;18.10;99.90;;;;;;5117615;27;20096;-92
2022/09/13 02:45:01;;;;;;;19.20;17.02;;;18.20;99.90;;;;;;5117510;27;20508;-91
2022/09/13 02:47:48;;;;;;;19.85;17.75;;;18.10;99.90;;;;;;5117357;27;20071;-92
2022/09/13 02:50:23;;;;;;;20.45;18.35;;;18.10;99.90;;;;;;5100226;27;20042;-90
2022/09/13 02:53:11;;;;;;;21.25;19.05;;;18.00;99.90;;;;;;5116971;27;20053;-92
2022/09/13 02:56:00;;;;;;;20.55;18.45;;;18.00;99.90;;;;;;5100024;27;20074;-91
2022/09/13 02:58:51;;;;;;;21.35;19.20;;;18.00;99.90;;;;;;5117079;27;20458;-92
2022/09/13 03:01:17;;;;;;;21.88;19.67;;;18.00;99.90;;;;;;5116597;27;20043;-91
2022/09/13 03:03:43;;;;;;;22.33;20.10;;;17.90;99.90;;;;;;5117222;27;20492;-91
2022/09/13 03:06:09;;;;;;;24.08;21.63;;;17.90;99.90;;;;;;5116976;27;20042;-91
2022/09/13 03:08:36;;;;;;;24.48;22.08;;;17.90;99.90;;;;;;5100165;27;20093;-91
2022/09/13 03:11:14;;;;;;;25.77;23.23;;;17.90;99.90;;;;;;5116684;27;20071;-91
2022/09/13 03:14:04;;;;;;;23.92;21.45;;;17.90;99.90;;;;;;5100086;27;20558;-91
2022/09/13 03:16:50;;;;;;;26.00;23.38;;;17.90;99.90;;;;;;5116546;27;20031;-92
2022/09/13 03:19:27;;;;;;;27.08;24.38;;;17.90;99.90;;;;;;5116770;27;20039;-91
2022/09/13 03:22:18;;;;;;;26.25;23.63;;;17.90;99.90;;;;;;5099543;27;20122;-91
2022/09/13 03:25:01;;;;;;;27.15;24.40;;;17.90;99.90;;;;;;5099865;27;20039;-91
2022/09/13 03:27:43;;;;;;;25.83;23.13;;;17.90;99.90;;;;;;5099728;27;20480;-92
2022/09/13 03:30:12;;;;;;;26.42;23.83;;;17.90;99.90;;;;;;5116436;27;20047;-91
2022/09/13 03:32:51;;;;;;;25.15;22.67;;;17.90;99.90;;;;;;5134746;27;20031;-92
2022/09/13 03:35:20;;;;;;;27.55;24.85;;;17.90;99.90;;;;;;5116816;27;20485;-91
2022/09/13 03:37:49;;;;;;;28.10;25.40;;;17.90;99.90;;;;;;5134630;27;20074;-91
2022/09/13 03:40:31;;;;;;;27.90;25.00;;;17.90;99.90;;;;;;5116235;27;20043;-91
2022/09/13 03:43:26;;;;;;;30.75;17.42;;;17.90;99.90;;;;;;5134803;27;20031;-91
2022/09/13 03:45:57;;;;;;;27.85;25.00;;;17.90;99.90;;;;;;5115946;27;20481;-91
2022/09/13 03:48:23;;;;;;;27.67;24.67;;;17.90;99.90;;;;;;5116186;27;20039;-92
2022/09/13 03:50:49;;;;;;;28.48;25.58;;;17.90;99.90;;;;;;5099185;27;20055;-91
2022/09/13 03:53:26;;;;;;;27.63;24.83;;;17.80;99.90;;;;;;5098852;27;20105;-91
2022/09/13 03:55:53;;;;;;;28.17;25.30;;;17.90;99.90;;;;;;5115803;27;20043;-91
2022/09/13 03:58:20;;;;;;;27.35;24.67;;;17.80;99.90;;;;;;5116065;27;20043;-92
2022/09/13 04:00:46;;;;;;;28.63;25.42;;;17.80;99.90;;;;;;5098613;27;20038;-91
2022/09/13 04:03:13;;;;;;;27.15;24.30;;;17.90;99.90;;;;;;5115665;27;20035;-91
2022/09/13 04:05:38;;;;;;;29.65;26.65;;;17.90;99.90;;;;;;5115942;27;20031;-91
2022/09/13 04:08:06;;;;;;;29.25;26.45;;;17.90;99.90;;;;;;5115579;27;20035;-91
2022/09/13 04:10:33;;;;;;;28.90;25.98;;;17.90;99.90;;;;;;5098887;27;20118;-91
2022/09/13 04:12:59;;;;;;;26.65;24.02;;;17.90;99.90;;;;;;5098515;27;20047;-91
2022/09/13 04:15:26;;;;;;;26.90;24.23;;;17.90;99.90;;;;;;5133674;27;20445;-91
2022/09/13 04:17:52;;;;;;;28.02;25.30;;;17.90;99.90;;;;;;5115949;27;20047;-91
2022/09/13 04:20:18;;;;;;;28.83;25.85;;;17.90;99.90;;;;;;5115508;27;20092;-91
2022/09/13 04:22:49;;;;;;;29.98;27.02;;;17.90;99.90;;;;;;5115131;27;20408;-91
2022/09/13 04:25:15;;;;;;;28.27;25.38;;;17.90;99.90;;;;;;5098641;27;20126;-91
2022/09/13 04:27:40;;;;;;;28.60;25.65;;;17.90;99.90;;;;;;5115773;27;20070;-91
2022/09/13 04:30:06;;;;;;;28.40;25.48;;;17.90;99.90;;;;;;5115138;27;20514;-91
2022/09/13 04:32:32;;;;;;;30.33;27.27;;;17.90;99.90;;;;;;5115453;27;20052;-91
2022/09/13 04:34:58;;;;;;;30.63;27.38;;;17.90;99.90;;;;;;5115731;27;20397;-91
2022/09/13 04:37:23;;;;;;;30.38;27.33;;;17.90;99.90;;;;;;5114949;27;20507;-91
2022/09/13 04:39:49;;;;;;;28.27;25.42;;;17.90;99.90;;;;;;5115099;27;20039;-91
2022/09/13 04:42:14;;;;;;;29.27;26.33;;;17.90;99.90;;;;;;5115212;27;20081;-91
2022/09/13 04:44:40;;;;;;;30.45;27.25;;;17.90;99.90;;;;;;5114220;28;20519;-91
2022/09/13 04:47:06;;;;;;;29.38;26.27;;;17.90;99.90;;;;;;5097757;27;20035;-91
2022/09/13 04:49:32;;;;;;;30.77;27.52;;;17.90;99.90;;;;;;5115173;27;20046;-91
2022/09/13 04:51:58;;;;;;;29.50;26.50;;;17.90;99.90;;;;;;5097531;27;20043;-91
2022/09/13 04:54:23;;;;;;;29.52;26.58;;;17.90;99.90;;;;;;5114749;27;20035;-91
2022/09/13 04:56:49;;;;;;;30.05;27.05;;;17.90;99.90;;;;;;5114847;27;20049;-91
2022/09/13 04:59:15;;;;;;;29.90;26.90;;;17.80;99.90;;;;;;5114504;27;20415;-91
2022/09/13 05:01:41;;;;;;;29.23;26.33;;;17.80;99.90;;;;;;5114665;27;20035;-91
2022/09/13 05:04:08;;;;;;;31.10;27.90;;;17.80;99.90;;;;;;5111812;27;20500;-91
2022/09/13 05:06:34;;;;;;;31.23;28.05;;;17.80;99.90;;;;;;5132123;27;20034;-90
2022/09/13 05:08:59;;;;;;;30.40;27.20;;;17.80;99.90;;;;;;5113669;27;20449;-91
2022/09/13 05:11:26;;;;;;;31.25;28.00;;;17.80;99.90;;;;;;5113333;27;20123;-91
2022/09/13 05:13:55;;;;;;;33.03;29.75;;;17.80;99.90;;;;;;5096505;27;20496;-90
2022/09/13 05:16:22;;;;;;;31.50;28.10;;;17.80;99.90;;;;;;5113573;27;20503;-91
2022/09/13 05:18:48;;;;;;;31.70;28.40;;;17.90;99.90;;;;;;5113798;27;20039;-91
2022/09/13 05:21:14;;;;;;;32.22;29.02;;;17.90;99.90;;;;;;5096392;27;20100;-90
2022/09/13 05:23:39;;;;;;;29.73;22.63;;;17.90;99.90;;;;;;5114020;27;20071;-90
2022/09/13 05:26:05;;;;;;;30.73;27.83;;;17.80;99.90;;;;;;5113915;27;20066;-91
2022/09/13 05:28:34;;;;;;;32.50;29.15;;;17.90;99.90;;;;;;5096463;27;20035;-90
2022/09/13 05:31:23;;;;;;;31.88;28.63;;;17.90;99.90;;;;;;5096812;27;20257;-91
2022/09/13 05:33:53;;;;;;;34.03;30.65;;;17.90;99.90;;;;;;5114041;28;20050;-91
2022/09/13 05:36:19;;;;;;;28.08;21.25;;;17.90;99.90;;;;;;5096385;27;20053;-90
2022/09/13 05:38:44;;;;;;;35.72;31.70;;;17.90;99.90;;;;;;5113414;27;20118;-90
2022/09/13 05:41:10;;;;;;;31.77;28.52;;;17.90;99.90;;;;;;5113487;27;20043;-90
2022/09/13 05:43:36;;;;;;;33.50;29.98;;;18.00;99.90;;;;;;5113616;28;20031;-91
2022/09/13 05:46:10;;;;;;;34.45;30.83;;;18.00;99.90;;;;;;5131137;28;20043;-92
2022/09/13 05:48:36;;;;;;;33.20;29.80;;;18.00;99.90;;;;;;5114396;27;20041;-92
2022/09/13 05:51:15;;;;;;;32.97;29.42;;;18.00;99.90;;;;;;5134071;27;20084;-92
2022/09/13 05:53:43;;;;;;;31.77;28.48;;;18.00;99.90;;;;;;5134502;27;20049;-91
2022/09/13 05:56:31;;;;;;;31.25;28.00;;;18.10;99.90;;;;;;5134752;27;20035;-91
2022/09/13 05:58:57;;;;;;;33.65;30.05;;;18.10;99.90;;;;;;5137866;27;20507;-91
2022/09/13 06:01:27;;;;;;;32.88;29.30;;;18.10;99.90;;;;;;5138090;27;20046;-91
2022/09/13 06:03:55;;;;;;;29.98;26.90;;;18.10;99.90;;;;;;5138541;27;20471;-91
2022/09/13 06:06:22;;;;;;;30.77;27.35;;;18.10;99.90;;;;;;5138201;27;20081;-91
2022/09/13 06:08:52;;;;;;;29.58;26.58;;;18.10;99.90;;;;;;5121044;27;20039;-91
2022/09/13 06:11:18;;;;;;;29.50;26.50;;;18.20;99.90;;;;;;5137853;27;20043;-91
2022/09/13 06:13:43;;;;;;;29.67;26.52;;;18.20;99.90;;;;;;5120795;27;20143;-91
2022/09/13 06:16:10;;;;;;;31.15;27.85;;;18.20;99.90;;;;;;5138174;27;20452;-92
2022/09/13 06:18:37;;;;;;;29.30;26.10;;;18.20;99.90;;;;;;5137579;27;20068;-91
2022/09/13 06:21:10;;;;;;;29.60;26.40;;;18.20;99.90;;;;;;5155967;27;20066;-91
2022/09/13 06:23:35;;;;;;;27.27;24.48;;;18.30;99.90;;;;;;5120926;27;20399;-91
2022/09/13 06:26:07;;;;;;;27.38;24.35;;;18.30;99.90;;;;;;5137812;27;20041;-91
2022/09/13 06:28:33;;;;;;;27.27;24.40;;;18.30;99.90;;;;;;5156309;27;20042;-91
2022/09/13 06:31:00;;;;;;;27.25;24.45;;;18.40;99.90;;;;;;5137391;27;20047;-91
2022/09/13 06:33:26;;;;;;;25.25;22.58;;;18.40;99.90;;;;;;5138083;27;20042;-91
2022/09/13 06:35:51;;;;;;;25.48;22.17;;;18.40;99.90;;;;;;5120299;27;20054;-91
2022/09/13 06:38:17;;;;;;;24.77;22.20;;;18.40;99.90;;;;;;5120308;27;20070;-90
2022/09/13 06:40:43;;;;;;;24.17;21.58;;;18.40;99.90;;;;;;5137062;27;20122;-91
2022/09/13 06:43:09;;;;;;;25.35;22.70;;;18.40;99.90;;;;;;5119809;27;20034;-91
2022/09/13 06:45:36;;;;;;;24.08;21.50;;;18.40;99.90;;;;;;5137340;27;20511;-91
2022/09/13 06:48:02;;;;;;;23.80;21.27;;;18.40;99.90;;;;;;5137544;27;20035;-91
2022/09/13 06:50:27;;;;;;;21.92;19.65;;;18.50;99.90;;;;;;5137575;27;20043;-91
2022/09/13 06:52:55;;;;;;;21.70;19.33;;;18.50;99.90;;;;;;5137180;27;20449;-91
2022/09/13 06:55:21;;;;;;;14.73;12.32;;;18.50;99.90;;;;;;5120361;27;20038;-92
2022/09/13 06:57:46;;;;;;;15.60;11.20;;;18.40;99.90;;;;;;5137011;27;20039;-92
2022/09/13 07:00:12;;;;;;;13.13;9.48;;;18.40;99.90;;;;;;5115646;27;20455;-91
2022/09/13 07:02:38;;;;;;;12.52;8.40;;;18.40;99.90;;;;;;5139627;27;20051;-91
2022/09/13 07:05:04;;;;;;;11.52;7.05;;;18.50;99.90;;;;;;5135737;27;20035;-91
2022/09/13 07:07:30;;;;;;;12.20;7.32;;;18.50;99.90;;;;;;5116738;27;20038;-92
2022/09/13 07:09:55;;;;;;;10.63;6.80;;;18.50;99.90;;;;;;5133886;27;20039;-91
2022/09/13 07:12:21;;;;;;;10.70;5.90;;;18.50;99.90;;;;;;5114824;27;20046;-91
2022/09/13 07:14:46;;;;;;;10.20;4.55;;;18.50;99.90;;;;;;5115803;27;20043;-91
2022/09/13 07:17:12;;;;;;;8.70;4.00;;;18.50;99.90;;;;;;5116321;27;20038;-91
2022/09/13 07:19:39;;;;;;;8.57;3.78;;;18.60;99.90;;;;;;5134233;27;20442;-91
2022/09/13 07:22:05;;;;;;;8.77;3.92;;;18.60;99.90;;;;;;5116173;27;20118;-91
2022/09/13 07:24:30;;;;;;;8.98;3.45;;;18.60;99.90;;;;;;5134736;27;20119;-92
2022/09/13 07:26:56;;;;;;;8.05;3.35;;;18.60;99.90;;;;;;5116276;27;20046;-91
2022/09/13 07:29:22;;;;;;;9.07;3.63;;;18.50;99.90;;;;;;5115849;27;20046;-91
2022/09/13 07:31:50;;;;;;;10.68;3.97;;;18.50;99.90;;;;;;5116107;27;20043;-91
2022/09/13 07:34:24;;;;;;;9.25;3.80;;;18.50;99.90;;;;;;5115948;27;20508;-91
2022/09/13 07:36:51;;;;;;;9.88;3.60;;;18.50;99.90;;;;;;5116198;27;20080;-92
2022/09/13 07:39:17;;;;;;;8.38;3.50;;;18.50;99.90;;;;;;5115782;27;20039;-91
2022/09/13 07:41:44;;;;;;;9.85;3.30;;;18.50;99.90;;;;;;5097976;27;20039;-91
2022/09/13 07:44:10;;;;;;;9.48;3.90;;;18.40;99.90;;;;;;5116235;27;20027;-92
2022/09/13 07:46:38;;;;;;;8.77;3.78;;;18.40;99.90;;;;;;5115771;27;20035;-92
2022/09/13 07:49:05;;;;;;;10.68;3.78;;;18.40;99.90;;;;;;5098477;27;20031;-91
2022/09/13 07:51:36;;;;;;;9.35;3.70;;;18.40;99.90;;;;;;5115885;27;20110;-91
2022/09/13 07:54:04;;;;;;;9.85;3.33;;;18.50;99.90;;;;;;5099091;27;20043;-91
2022/09/13 07:56:31;;;;;;;9.98;3.78;;;18.50;99.90;;;;;;5115545;27;20043;-91
2022/09/13 07:59:00;;;;;;;11.85;3.90;;;18.60;99.90;;;;;;5115346;27;20039;-91
2022/09/13 08:01:27;;;;;;;9.82;3.38;;;18.60;99.90;;;;;;5133854;27;20043;-91
2022/09/13 08:03:55;;;;;;;9.55;3.05;;;18.60;99.90;;;;;;5115753;27;20122;-92
2022/09/13 08:06:22;;;;;;;8.93;3.22;;;18.70;99.90;;;;;;5115326;27;20043;-92
2022/09/13 08:08:48;;;;;;;8.63;3.00;;;18.70;99.90;;;;;;5115287;27;20046;-91
2022/09/13 08:11:23;;;;;;;10.98;3.42;;;18.80;99.90;;;;;;5097703;27;20445;-92
2022/09/13 08:13:50;;;;;;;11.43;2.90;;;18.80;99.90;;;;;;5115774;27;20062;-91
2022/09/13 08:16:17;;;;;;;10.40;3.67;;;18.80;99.90;;;;;;5113321;27;20084;-91
2022/09/13 08:18:44;;;;;;;9.05;3.28;;;18.90;99.90;;;;;;5113406;27;20089;-91
2022/09/13 08:21:10;;;;;;;8.10;2.65;;;19.00;99.90;;;;;;5096688;27;20039;-91
2022/09/13 08:23:36;;;;;;;8.18;2.38;;;19.00;99.90;;;;;;5114974;27;20055;-91
2022/09/13 08:26:02;;;;;;;9.45;2.35;;;19.10;99.90;;;;;;5115383;27;20035;-92
2022/09/13 08:28:29;;;;;;;8.65;2.55;;;19.20;99.90;;;;;;5114969;27;20091;-92
2022/09/13 08:30:54;;;;;;;9.57;2.47;;;19.20;99.90;;;;;;5117215;27;20774;-92
2022/09/13 08:33:20;;;;;;;10.00;2.42;;;19.30;99.90;;;;;;5114991;27;20074;-91
2022/09/13 08:35:51;;;;;;;6.88;2.05;;;19.40;99.90;;;;;;5098037;27;20043;-92
2022/09/13 08:38:17;;;;;;;11.18;2.22;;;19.40;99.90;;;;;;5097848;27;20039;-92
2022/09/13 08:41:08;;;;;;;10.40;2.20;;;19.40;99.90;;;;;;5114228;27;20039;-91
2022/09/13 08:43:53;;;;;;;9.68;2.00;;;19.50;99.90;;;;;;5067801;27;20130;-91
2022/09/13 08:46:27;;;;;;;10.02;1.80;;;19.50;99.90;;;;;;5097378;27;20041;-91
2022/09/13 08:48:57;;;;;;;10.15;2.38;;;19.50;99.90;;;;;;5114769;27;20070;-92
2022/09/13 08:51:28;;;;;;;10.98;2.00;;;19.60;99.90;;;;;;5114313;27;20042;-91
2022/09/13 08:53:56;;;;;;;10.93;3.45;;;19.60;99.90;;;;;;5097699;27;20039;-92
2022/09/13 08:56:27;;;;;;;10.23;2.08;;;19.60;99.90;;;;;;5102870;27;20091;-92
2022/09/13 08:59:11;;;;;;;9.07;1.70;;;19.60;99.90;;;;;;5097312;27;20058;-92
2022/09/13 09:02:07;;;;;;;8.07;1.58;;;19.60;99.90;;;;;;5097274;27;20039;-92
2022/09/13 09:05:02;;;;;;;8.10;2.08;;;19.60;99.90;;;;;;5114250;27;20118;-91
2022/09/13 09:07:36;;;;;;;10.02;1.70;;;19.60;99.90;;;;;;5114331;27;20034;-91
2022/09/13 09:10:16;;;;;;;5.80;1.48;;;19.70;99.90;;;;;;5115108;27;20031;-91
2022/09/13 09:13:01;;;;;;;8.75;1.88;;;19.70;99.90;;;;;;5114269;27;20039;-91
2022/09/13 09:15:35;;;;;;;11.15;2.03;;;19.70;99.90;;;;;;5095933;27;20039;-91
2022/09/13 09:18:08;;;;;;;7.93;1.73;;;19.70;99.90;;;;;;5114684;28;20077;-91
2022/09/13 09:20:39;;;;;;;;;;;19.80;99.90;;;;;;5114833;27;20043;-92
2022/09/13 09:23:14;;;;;;;7.75;1.60;;;19.80;99.90;;;;;;5114306;27;19915;-92
2022/09/13 09:25:39;;;;;;;10.68;1.90;;;19.90;99.90;;;;;;5115323;27;20031;-91
2022/09/13 09:28:16;;;;;;;9.52;1.85;;;19.90;99.90;;;;;;5126874;27;20443;-92
2022/09/13 09:30:52;;;;;;;7.97;1.50;;;20.00;99.90;;;;;;5096908;27;20103;-92
2022/09/13 09:33:36;;;;;;;7.55;1.48;;;20.10;99.90;;;;;;5113932;27;20043;-92
2022/09/13 09:36:14;;;;;;;9.40;1.52;;;20.20;99.90;;;;;;5113945;28;20139;-92
2022/09/13 09:38:42;;;;;;;10.75;1.95;;;20.30;99.90;;;;;;5113827;27;20043;-91
2022/09/13 09:41:24;;;;;;;6.43;1.15;;;20.30;99.90;;;;;;5113498;27;20050;-92
2022/09/13 09:44:20;;;;;;;8.27;1.40;;;20.50;99.90;;;;;;5097140;27;20047;-92
2022/09/13 09:46:59;;;;;;;5.88;1.20;;;20.60;99.90;;;;;;5096662;28;20126;-92
2022/09/13 09:52:29;;;;;;;7.90;2.22;;;20.60;99.90;;;;;;5113411;28;20046;-91
2022/09/13 09:55:02;;;;;;;6.63;1.30;;;20.60;99.90;;;;;;5114039;28;20039;-92
2022/09/13 09:57:54;;;;;;;6.40;1.00;;;20.60;99.90;;;;;;5097003;28;20053;-92
2022/09/13 10:00:22;;;;;;;6.68;1.50;;;20.60;99.90;;;;;;5096759;28;20463;-92
2022/09/13 10:02:53;;;;;;;10.68;1.40;;;20.60;99.90;;;;;;5096385;28;20556;-92
2022/09/13 10:05:21;;;;;;;5.97;1.00;;;20.70;99.90;;;;;;5113936;28;20035;-91
2022/09/13 10:08:00;;;;;;;5.85;1.33;;;20.80;99.90;;;;;;5113508;28;20512;-91
2022/09/13 10:10:37;;;;;;;8.02;1.90;;;21.00;99.90;;;;;;5096434;28;20035;-92
2022/09/13 10:13:06;;;;;;;4.80;1.23;;;21.10;99.90;;;;;;5113649;28;20043;-92
2022/09/13 10:15:34;;;;;;;5.00;1.20;;;21.10;99.90;;;;;;5096265;28;20086;-91
2022/09/13 10:18:21;;;;;;;6.82;1.23;;;21.20;99.90;;;;;;5096395;28;20039;-91
2022/09/13 10:21:17;;;;;;;6.03;1.25;;;21.20;99.90;;;;;;5096287;28;20070;-92
2022/09/13 10:23:49;;;;;;;5.30;1.10;;;21.30;99.90;;;;;;5113751;28;20469;-92
2022/09/13 10:26:24;;;;;;;5.57;1.08;;;21.30;99.90;;;;;;5096272;28;20526;-92
2022/09/13 10:29:04;;;;;;;4.60;1.00;;;21.40;99.90;;;;;;5096177;28;20492;-91
2022/09/13 10:31:35;;;;;;;6.15;1.10;;;21.50;99.90;;;;;;5112291;28;20039;-92
2022/09/13 10:34:10;;;;;;;6.30;1.23;;;21.60;99.90;;;;;;5096244;28;20111;-92
2022/09/13 10:36:42;;;;;;;5.22;1.05;;;21.60;99.90;;;;;;5113462;28;20061;-92
2022/09/13 10:39:17;;;;;;;7.20;1.15;;;21.70;99.90;;;;;;5096039;28;20042;-92
2022/09/13 10:41:56;;;;;;;6.90;1.38;;;21.80;99.90;;;;;;5114290;27;20035;-92
2022/09/13 10:44:30;;;;;;;6.70;1.25;;;21.90;99.90;;;;;;5127343;27;20495;-92
2022/09/13 10:46:59;;;;;;;6.18;1.23;;;22.00;99.90;;;;;;5120339;27;20035;-92
2022/09/13 10:49:51;;;;;;;5.57;1.30;;;22.20;99.90;;;;;;5137104;27;20034;-92
2022/09/13 10:52:25;;;;;;;5.22;1.05;;;22.30;99.90;;;;;;5137492;27;20407;-92
2022/09/13 10:54:52;;;;;;;7.22;1.25;;;22.40;99.90;;;;;;5137401;27;20050;-92
2022/09/13 10:57:33;;;;;;;6.22;1.10;;;22.40;99.90;;;;;;5119869;27;20039;-92
2022/09/13 10:59:59;;;;;;;5.40;0.90;;;22.50;99.90;;;;;;5120099;27;20027;-92
2022/09/13 11:02:45;;;;;;;8.23;1.10;;;22.60;99.90;;;;;;5137341;27;20515;-92
2022/09/13 11:05:25;;;;;;;6.53;1.13;;;22.70;99.90;;;;;;5120195;27;20043;-92
2022/09/13 11:08:06;;;;;;;4.07;0.90;;;22.80;99.90;;;;;;5137319;27;20176;-92
2022/09/13 11:10:46;;;;;;;6.60;1.30;;;22.80;99.90;;;;;;5137172;27;20042;-92
2022/09/13 11:13:23;;;;;;;8.38;1.85;;;22.80;99.90;;;;;;5136908;27;20038;-92
2022/09/13 11:16:11;;;;;;;5.80;1.05;;;23.00;99.90;;;;;;5136223;27;20043;-92
2022/09/13 11:19:04;;;;;;;6.65;1.38;;;23.10;99.90;;;;;;5136129;27;20039;-92
2022/09/13 11:21:35;;;;;;;9.40;2.30;;;23.20;99.90;;;;;;5119936;27;20035;-92
2022/09/13 11:24:26;;;;;;;5.00;1.10;;;23.20;99.90;;;;;;5137562;27;20521;-92
2022/09/13 11:26:58;;;;;;;5.25;0.85;;;23.20;99.90;;;;;;5128059;27;20074;-92
2022/09/13 11:29:45;;;;;;;7.93;1.15;;;23.20;99.90;;;;;;5127217;27;20031;-92
2022/09/13 11:32:50;;;;;;;9.55;1.85;;;23.30;99.90;;;;;;5118170;27;20047;-92
2022/09/13 11:35:33;;;;;;;4.97;0.90;;;23.30;99.90;;;;;;5116071;27;20407;-92
2022/09/13 11:38:05;;;;;;;6.65;1.13;;;23.40;99.90;;;;;;5099262;27;20047;-92
2022/09/13 11:40:36;;;;;;;4.43;0.85;;;23.60;99.90;;;;;;5104132;27;20039;-92
2022/09/13 11:43:29;;;;;;;6.07;1.27;;;23.70;99.90;;;;;;5116756;27;20047;-92
2022/09/13 11:46:11;;;;;;;6.15;1.05;;;23.70;99.90;;;;;;5069136;27;20552;-92
2022/09/13 11:49:06;;;;;;;5.63;1.30;;;23.70;99.90;;;;;;5114978;27;20050;-92
2022/09/13 11:51:39;;;;;;;6.15;1.10;;;23.70;99.90;;;;;;5064202;27;20054;-92
2022/09/13 11:54:26;;;;;;;5.00;1.10;;;23.80;99.90;;;;;;5099292;27;20039;-92
2022/09/13 11:56:58;;;;;;;4.45;1.10;;;23.90;99.90;;;;;;5115792;27;20130;-91
2022/09/13 11:59:39;;;;;;;5.57;0.93;;;24.00;99.90;;;;;;5099270;27;20408;-92
2022/09/13 12:02:23;;;;;;;4.82;0.90;;;24.10;99.90;;;;;;5134382;27;20043;-92
2022/09/13 12:04:59;;;;;;;5.95;0.80;;;24.10;99.90;;;;;;5116047;27;20035;-92
2022/09/13 12:07:33;;;;;;;6.88;1.00;;;24.20;99.10;;;;;;5099012;27;20060;-92
2022/09/13 12:10:19;;;;;;;8.13;1.02;;;24.30;98.60;;;;;;5098877;27;20474;-91
2022/09/13 12:12:49;;;;;;;6.85;1.27;;;24.40;98.70;;;;;;5115685;27;20047;-92
2022/09/13 12:15:17;;;;;;;5.88;1.10;;;24.40;96.70;;;;;;5115701;27;20045;-92
2022/09/13 12:17:56;;;;;;;7.38;0.93;;;24.30;95.00;;;;;;5115660;27;20046;-92
2022/09/13 12:20:33;;;;;;;6.28;0.90;;;24.30;95.50;;;;;;5098951;27;20035;-92
2022/09/13 12:23:02;;;;;;;7.50;1.45;;;24.20;95.60;;;;;;5115374;27;20549;-92
2022/09/13 12:25:41;;;;;;;5.85;0.98;;;24.10;95.60;;;;;;5115882;27;20493;-92
2022/09/13 12:28:23;;;;;;;4.72;0.93;;;24.20;96.30;;;;;;5115515;27;20092;-92
2022/09/13 12:30:59;;;;;;;5.32;0.98;;;24.30;95.70;;;;;;5098192;27;20047;-92
2022/09/13 12:33:25;;;;;;;4.10;0.90;;;24.30;94.70;;;;;;5115512;27;20410;-91
2022/09/13 12:36:16;;;;;;;5.80;0.93;;;24.40;95.20;;;;;;5098367;27;20039;-92
2022/09/13 12:39:11;;;;;;;4.97;1.00;;;24.70;94.20;;;;;;5098382;27;20424;-92
2022/09/13 12:42:03;;;;;;;6.88;1.10;;;24.70;91.90;;;;;;5114987;27;20051;-92
2022/09/13 12:44:43;;;;;;;5.68;0.93;;;25.00;89.40;;;;;;5098255;27;20114;-92
2022/09/13 12:47:19;;;;;;;5.00;1.20;;;25.20;86.60;;;;;;5098461;27;20098;-92
2022/09/13 12:50:11;;;;;;;6.28;1.00;;;25.20;82.00;;;;;;5130502;27;20403;-92
2022/09/13 12:52:48;;;;;;;6.82;1.17;;;25.40;82.90;;;;;;5135013;27;20042;-92
2022/09/13 12:55:29;;;;;;;9.18;1.30;;;25.60;83.10;;;;;;5134969;27;20687;-92
2022/09/13 12:58:07;;;;;;;6.97;1.13;;;25.70;79.30;;;;;;5135223;27;20078;-92
2022/09/13 13:00:37;;;;;;;5.75;1.08;;;25.60;77.20;;;;;;5134933;27;20035;-92
2022/09/13 13:03:13;;;;;;;6.15;1.27;;;25.70;77.60;;;;;;5118085;27;20122;-92
2022/09/13 13:06:24;;;;;;;8.77;1.27;;;26.00;73.50;;;;;;5117434;27;20407;-92
2022/09/13 13:08:52;;;;;;;5.95;1.00;;;26.20;72.70;;;;;;5135264;27;20064;-92